Time;durP1;ratioP1;P1;durP2;ratioP2;P2;SDS_P1;SDS_P2;PMS_P1;PMS_P2;Temp;Humidity;BMP_temperature;BMP_pressure;BME280_temperature;BME280_humidity;BME280_pressure;Samples;Min_cycle;Max_cycle;Signal;HPM_P1;HPM_P2
2023/02/05 00:01:55;;;;;;;27.67;11.05;;;5.20;80.50;;;;;;5051709;28;20029;-71
2023/02/05 00:04:21;;;;;;;21.00;9.32;;;5.30;80.10;;;;;;5049945;28;20025;-71
2023/02/05 00:06:48;;;;;;;20.60;10.70;;;5.40;80.20;;;;;;5051985;28;20522;-71
2023/02/05 00:09:13;;;;;;;19.95;10.27;;;5.30;80.20;;;;;;5053318;28;20021;-71
2023/02/05 00:11:39;;;;;;;22.00;11.23;;;5.20;80.80;;;;;;5053705;28;20052;-71
2023/02/05 00:14:05;;;;;;;22.75;10.95;;;5.20;81.00;;;;;;5053598;28;20055;-71
2023/02/05 00:16:33;;;;;;;24.08;12.20;;;5.30;81.30;;;;;;5052848;28;20028;-70
2023/02/05 00:18:59;;;;;;;24.60;11.95;;;5.20;82.30;;;;;;5053168;28;20501;-71
2023/02/05 00:21:25;;;;;;;28.40;10.23;;;5.20;82.40;;;;;;5053867;28;20033;-70
2023/02/05 00:23:51;;;;;;;20.88;11.02;;;5.10;82.60;;;;;;5054989;28;20033;-70
2023/02/05 00:26:18;;;;;;;27.75;12.45;;;5.20;83.10;;;;;;5054925;28;20029;-70
2023/02/05 00:28:44;;;;;;;26.30;12.63;;;5.40;83.30;;;;;;5054672;28;20025;-70
2023/02/05 00:31:15;;;;;;;25.42;11.38;;;5.20;83.20;;;;;;5055090;28;20033;-70
2023/02/05 00:33:41;;;;;;;33.17;13.25;;;5.10;83.90;;;;;;5054647;28;20033;-71
2023/02/05 00:36:07;;;;;;;26.25;13.20;;;5.20;84.20;;;;;;5054516;28;20040;-70
2023/02/05 00:38:35;;;;;;;27.48;12.65;;;5.00;84.90;;;;;;5054471;28;20396;-70
2023/02/05 00:41:00;;;;;;;27.10;13.13;;;5.00;85.30;;;;;;5054775;28;20041;-71
2023/02/05 00:43:26;;;;;;;27.17;11.80;;;5.10;85.30;;;;;;5054796;28;20044;-70
2023/02/05 00:45:52;;;;;;;28.85;13.82;;;4.90;85.60;;;;;;5053555;28;20048;-71
2023/02/05 00:48:17;;;;;;;26.10;12.73;;;4.80;86.60;;;;;;5053188;28;20479;-71
2023/02/05 00:50:43;;;;;;;26.00;13.00;;;5.00;86.90;;;;;;5054541;28;20029;-70
2023/02/05 00:53:08;;;;;;;32.20;14.32;;;5.10;87.20;;;;;;5053172;28;20104;-70
2023/02/05 00:55:34;;;;;;;29.52;14.85;;;5.10;88.10;;;;;;5053068;28;20534;-70
2023/02/05 00:58:00;;;;;;;27.92;15.10;;;5.10;88.30;;;;;;5053430;28;20040;-70
2023/02/05 01:00:26;;;;;;;32.15;15.35;;;5.10;88.20;;;;;;5053151;28;20528;-71
2023/02/05 01:02:53;;;;;;;30.33;14.52;;;5.10;88.90;;;;;;5052717;28;20079;-71
2023/02/05 01:05:19;;;;;;;31.13;16.40;;;5.20;87.60;;;;;;5053982;28;20033;-70
2023/02/05 01:07:45;;;;;;;35.40;16.83;;;5.10;88.60;;;;;;5053325;28;20031;-71
2023/02/05 01:10:11;;;;;;;29.80;15.30;;;5.20;88.90;;;;;;5054284;28;20064;-70
2023/02/05 01:12:36;;;;;;;33.80;17.13;;;5.20;89.50;;;;;;5052027;28;20069;-70
2023/02/05 01:15:03;;;;;;;40.20;18.05;;;5.30;90.10;;;;;;5053884;28;20035;-71
2023/02/05 01:17:29;;;;;;;37.33;17.33;;;5.40;90.40;;;;;;5050735;28;20503;-70
2023/02/05 01:19:55;;;;;;;27.45;15.32;;;5.50;90.30;;;;;;5053641;28;20032;-70
2023/02/05 01:22:20;;;;;;;28.48;15.07;;;5.40;89.70;;;;;;5053100;28;20083;-70
2023/02/05 01:24:46;;;;;;;36.17;17.40;;;5.20;88.90;;;;;;5053829;28;20025;-71
2023/02/05 01:27:12;;;;;;;37.00;17.85;;;5.20;90.00;;;;;;5052249;28;20283;-70
2023/02/05 01:29:37;;;;;;;34.70;18.02;;;5.20;90.70;;;;;;5053157;28;20368;-71
2023/02/05 01:32:03;;;;;;;32.97;17.83;;;5.30;90.90;;;;;;5052494;28;20530;-70
2023/02/05 01:34:29;;;;;;;33.47;18.10;;;5.20;91.50;;;;;;5052302;28;20021;-70
2023/02/05 01:36:54;;;;;;;34.75;17.55;;;5.10;91.50;;;;;;5048762;28;20585;-71
2023/02/05 01:39:20;;;;;;;32.70;17.02;;;5.10;91.40;;;;;;5045026;28;20041;-70
2023/02/05 01:41:46;;;;;;;35.88;18.77;;;4.80;91.60;;;;;;5036295;28;20470;-70
2023/02/05 01:44:17;;;;;;;33.10;16.75;;;4.90;92.40;;;;;;5052471;28;20530;-70
2023/02/05 01:46:45;;;;;;;31.52;16.33;;;5.00;92.20;;;;;;5050134;28;20179;-70
2023/02/05 01:49:31;;;;;;;33.92;17.85;;;4.80;92.80;;;;;;5051806;28;20076;-70
2023/02/05 01:52:01;;;;;;;34.83;15.75;;;5.00;93.00;;;;;;5051654;28;20163;-70
2023/02/05 01:54:30;;;;;;;35.53;16.60;;;5.00;93.20;;;;;;5053105;28;20036;-70
2023/02/05 01:57:02;;;;;;;31.15;15.60;;;5.00;93.50;;;;;;5051647;28;20040;-70
2023/02/05 01:59:31;;;;;;;31.73;16.13;;;4.90;93.60;;;;;;5041983;28;20122;-70
2023/02/05 02:01:59;;;;;;;29.25;14.65;;;5.00;93.70;;;;;;5052774;28;20033;-70
2023/02/05 02:04:46;;;;;;;30.77;15.65;;;4.90;93.70;;;;;;5040613;28;20433;-70
2023/02/05 02:07:14;;;;;;;32.97;16.13;;;4.90;94.20;;;;;;5052759;28;20036;-71
2023/02/05 02:09:42;;;;;;;32.22;15.75;;;4.90;94.60;;;;;;5052713;28;20041;-71
2023/02/05 02:12:11;;;;;;;30.00;16.50;;;4.90;94.50;;;;;;5052583;28;20399;-71
2023/02/05 02:14:38;;;;;;;35.15;15.88;;;4.80;94.90;;;;;;5052790;28;20021;-70
2023/02/05 02:17:06;;;;;;;31.83;14.00;;;4.60;94.80;;;;;;5052197;28;20478;-71
2023/02/05 02:20:02;;;;;;;29.50;13.50;;;4.50;94.90;;;;;;5052241;28;20028;-71
2023/02/05 02:22:45;;;;;;;33.60;15.77;;;4.50;95.10;;;;;;5044376;28;20402;-70
2023/02/05 02:25:26;;;;;;;30.60;14.70;;;4.50;95.20;;;;;;5052489;28;20029;-70
2023/02/05 02:28:03;;;;;;;28.90;13.48;;;4.50;95.00;;;;;;5052291;28;20415;-70
2023/02/05 02:30:43;;;;;;;33.47;15.45;;;4.30;94.90;;;;;;5051014;28;20086;-70
2023/02/05 02:33:35;;;;;;;28.88;14.70;;;4.00;95.40;;;;;;5050841;28;20148;-70
2023/02/05 02:36:33;;;;;;;29.70;14.77;;;3.90;96.00;;;;;;5052560;28;20047;-71
2023/02/05 02:39:06;;;;;;;29.88;13.75;;;4.20;96.10;;;;;;4988555;28;20053;-71
2023/02/05 02:42:08;;;;;;;26.92;13.18;;;4.20;95.80;;;;;;5034954;28;20100;-71
2023/02/05 02:44:50;;;;;;;24.95;13.55;;;4.40;96.50;;;;;;5045019;28;20068;-71
2023/02/05 02:47:20;;;;;;;27.20;12.40;;;4.50;96.30;;;;;;5051363;28;20040;-71
2023/02/05 02:50:12;;;;;;;33.53;13.00;;;4.40;95.90;;;;;;5050565;28;20397;-70
2023/02/05 02:52:41;;;;;;;23.83;11.70;;;4.50;96.60;;;;;;5050606;28;20060;-70
2023/02/05 02:55:11;;;;;;;23.75;12.30;;;4.40;96.30;;;;;;5052125;28;20025;-70
2023/02/05 02:57:39;;;;;;;26.27;13.90;;;4.30;96.10;;;;;;5051299;28;20044;-71
2023/02/05 03:00:12;;;;;;;24.67;12.05;;;4.40;97.50;;;;;;5050716;28;20107;-68
2023/02/05 03:02:39;;;;;;;25.73;12.88;;;4.60;97.60;;;;;;5048744;28;20037;-71
2023/02/05 03:05:11;;;;;;;27.63;13.30;;;4.60;97.50;;;;;;5050140;28;20544;-70
2023/02/05 03:07:45;;;;;;;27.55;12.90;;;4.40;97.60;;;;;;5051004;28;20438;-71
2023/02/05 03:10:23;;;;;;;24.73;12.23;;;4.40;97.80;;;;;;5044607;28;20033;-70
2023/02/05 03:12:49;;;;;;;27.35;12.45;;;4.60;98.10;;;;;;5040311;28;20028;-71
2023/02/05 03:15:15;;;;;;;25.60;11.55;;;4.80;98.20;;;;;;5051451;28;20033;-70
2023/02/05 03:17:41;;;;;;;26.80;12.27;;;4.90;98.00;;;;;;5051220;28;20056;-71
2023/02/05 03:20:24;;;;;;;23.90;11.25;;;4.70;98.00;;;;;;5048403;28;20108;-71
2023/02/05 03:22:51;;;;;;;29.80;11.52;;;4.60;98.00;;;;;;5042873;28;20026;-70
2023/02/05 03:25:21;;;;;;;23.13;11.55;;;4.60;98.30;;;;;;5046249;28;20017;-71
2023/02/05 03:27:50;;;;;;;20.95;11.13;;;4.50;98.30;;;;;;5047944;28;20033;-70
2023/02/05 03:30:16;;;;;;;23.05;10.43;;;4.50;98.80;;;;;;5055924;28;20021;-70
2023/02/05 03:33:07;;;;;;;23.92;12.30;;;4.40;98.20;;;;;;5054317;28;20033;-70
2023/02/05 03:35:50;;;;;;;22.17;10.65;;;4.10;99.00;;;;;;5055759;28;20141;-70
2023/02/05 03:38:27;;;;;;;22.13;10.65;;;4.20;99.70;;;;;;5054706;28;20051;-70
2023/02/05 03:41:19;;;;;;;25.02;10.80;;;4.30;99.40;;;;;;5055574;28;20052;-70
2023/02/05 03:43:48;;;;;;;25.15;11.38;;;4.20;99.10;;;;;;5054229;28;20036;-70
2023/02/05 03:46:56;;;;;;;20.73;11.23;;;3.90;99.40;;;;;;5055418;28;20394;-70
2023/02/05 03:49:28;;;;;;;21.50;9.63;;;3.90;99.90;;;;;;5046734;28;20447;-70
2023/02/05 03:52:12;;;;;;;24.05;9.48;;;4.10;99.20;;;;;;5055169;28;20028;-70
2023/02/05 03:55:02;;;;;;;23.95;10.13;;;4.10;99.00;;;;;;5055402;28;20479;-70
2023/02/05 03:57:38;;;;;;;22.90;9.43;;;3.80;99.30;;;;;;5055438;28;20104;-71
2023/02/05 04:00:05;;;;;;;24.35;10.77;;;4.10;99.10;;;;;;5055318;28;20544;-70
2023/02/05 04:02:30;;;;;;;22.60;10.85;;;4.00;98.60;;;;;;5052709;28;20382;-70
2023/02/05 04:04:56;;;;;;;21.40;10.18;;;3.70;98.80;;;;;;5039367;28;20029;-71
2023/02/05 04:07:22;;;;;;;21.77;9.55;;;3.50;99.10;;;;;;5049485;28;20021;-70
2023/02/05 04:09:47;;;;;;;25.85;11.68;;;3.50;99.90;;;;;;5048489;28;20029;-71
2023/02/05 04:12:13;;;;;;;19.98;9.50;;;3.50;99.10;;;;;;5049386;28;20045;-70
2023/02/05 04:14:38;;;;;;;20.02;10.73;;;3.50;98.90;;;;;;5049598;28;20390;-71
2023/02/05 04:17:04;;;;;;;22.23;10.75;;;3.60;99.80;;;;;;5050033;28;20430;-71
2023/02/05 04:19:30;;;;;;;19.58;9.80;;;4.00;98.80;;;;;;5049852;28;20493;-71
2023/02/05 04:21:55;;;;;;;17.63;8.18;;;3.90;98.80;;;;;;5050717;28;20029;-71
2023/02/05 04:24:21;;;;;;;21.45;9.00;;;3.70;99.40;;;;;;5052887;28;20100;-71
2023/02/05 04:26:47;;;;;;;19.95;9.40;;;3.80;99.50;;;;;;5052290;28;20033;-71
2023/02/05 04:29:12;;;;;;;22.60;10.77;;;3.90;99.30;;;;;;5050915;28;20482;-72
2023/02/05 04:31:38;;;;;;;24.35;11.00;;;3.80;98.50;;;;;;5050642;28;20029;-71
2023/02/05 04:34:03;;;;;;;25.45;9.63;;;3.50;98.60;;;;;;5034196;28;20037;-71
2023/02/05 04:36:30;;;;;;;17.80;8.43;;;3.50;99.20;;;;;;5051755;28;20107;-71
2023/02/05 04:38:55;;;;;;;20.25;8.80;;;3.40;99.40;;;;;;5052612;28;20068;-70
2023/02/05 04:41:21;;;;;;;21.83;9.32;;;3.60;99.90;;;;;;5051651;28;20076;-71
2023/02/05 04:43:46;;;;;;;23.60;10.73;;;3.50;99.00;;;;;;5041249;28;20056;-71
2023/02/05 04:46:12;;;;;;;26.17;10.73;;;3.40;99.10;;;;;;5042324;28;20061;-71
2023/02/05 04:48:38;;;;;;;23.58;9.38;;;3.40;98.90;;;;;;5048254;28;20531;-72
2023/02/05 04:51:08;;;;;;;20.20;8.98;;;3.50;98.70;;;;;;5048136;28;21350;-71
2023/02/05 04:53:35;;;;;;;23.08;9.98;;;3.30;98.90;;;;;;5050031;28;20060;-71
2023/02/05 04:56:16;;;;;;;22.10;10.05;;;3.30;98.60;;;;;;5050261;28;20028;-71
2023/02/05 04:58:43;;;;;;;22.83;10.40;;;3.30;98.90;;;;;;5051409;28;20067;-71
2023/02/05 05:01:17;;;;;;;24.10;10.27;;;3.40;98.90;;;;;;5050191;28;20033;-71
2023/02/05 05:03:43;;;;;;;21.42;10.15;;;3.50;98.50;;;;;;5047966;28;20532;-71
2023/02/05 05:06:10;;;;;;;20.65;9.23;;;3.60;99.80;;;;;;5052017;28;20039;-71
2023/02/05 05:08:35;;;;;;;23.40;9.48;;;3.70;99.20;;;;;;5051195;28;20025;-71
2023/02/05 05:11:06;;;;;;;17.63;8.88;;;3.90;99.40;;;;;;5052190;28;20032;-71
2023/02/05 05:13:34;;;;;;;19.00;8.23;;;4.00;98.70;;;;;;5050639;28;20112;-71
2023/02/05 05:16:00;;;;;;;22.70;8.73;;;3.90;98.50;;;;;;5050736;28;20054;-71
2023/02/05 05:18:26;;;;;;;24.20;9.23;;;3.80;99.10;;;;;;5050210;28;20037;-71
2023/02/05 05:20:51;;;;;;;20.58;8.73;;;4.00;99.30;;;;;;5051241;28;20086;-71
2023/02/05 05:23:17;;;;;;;22.83;9.45;;;3.70;98.40;;;;;;5050087;28;20025;-71
2023/02/05 05:25:47;;;;;;;17.80;7.60;;;3.10;99.90;;;;;;5035915;28;20168;-71
2023/02/05 05:28:15;;;;;;;20.10;8.25;;;3.10;99.90;;;;;;5049487;28;20067;-71
2023/02/05 05:30:43;;;;;;;22.92;8.38;;;3.20;99.90;;;;;;5050852;28;20021;-71
2023/02/05 05:33:09;;;;;;;23.98;8.77;;;3.20;99.90;;;;;;5050933;28;20025;-71
2023/02/05 05:35:35;;;;;;;19.35;8.77;;;3.10;99.90;;;;;;5050528;28;20114;-71
2023/02/05 05:38:02;;;;;;;21.80;8.45;;;3.20;99.80;;;;;;5050241;28;20652;-71
2023/02/05 05:46:02;;;;;;;19.55;7.72;;;2.80;99.90;;;;;;5050223;28;20075;-70
2023/02/05 05:48:27;;;;;;;17.55;8.13;;;3.20;99.90;;;;;;5049425;28;20470;-71
2023/02/05 05:50:53;;;;;;;21.17;7.90;;;3.00;99.90;;;;;;5049536;28;20068;-70
2023/02/05 05:53:19;;;;;;;20.15;7.75;;;3.10;99.90;;;;;;5050635;28;20036;-71
2023/02/05 05:55:45;;;;;;;17.50;7.82;;;3.10;99.80;;;;;;5050169;28;20029;-71
2023/02/05 05:58:11;;;;;;;16.50;7.50;;;3.10;99.50;;;;;;5049760;28;20102;-71
2023/02/05 06:00:37;;;;;;;20.23;7.88;;;3.00;99.70;;;;;;5050679;28;20108;-70
2023/02/05 06:03:03;;;;;;;21.15;9.13;;;2.90;99.60;;;;;;5043261;28;20021;-71
2023/02/05 06:05:30;;;;;;;17.48;8.02;;;2.90;99.70;;;;;;5042789;28;20429;-71
2023/02/05 06:07:56;;;;;;;23.10;7.63;;;2.80;99.90;;;;;;5050994;28;20167;-71
2023/02/05 06:10:22;;;;;;;18.77;7.15;;;2.80;99.80;;;;;;5051215;28;20108;-71
2023/02/05 06:12:48;;;;;;;13.63;6.75;;;2.70;99.80;;;;;;5051207;28;20113;-71
2023/02/05 06:15:14;;;;;;;18.25;7.88;;;2.70;99.90;;;;;;5050755;28;20497;-71
2023/02/05 06:17:40;;;;;;;17.73;7.25;;;2.80;99.80;;;;;;5050598;28;20120;-71
2023/02/05 06:20:06;;;;;;;21.50;8.50;;;2.80;99.80;;;;;;5050935;28;20506;-70
2023/02/05 06:22:31;;;;;;;16.65;7.07;;;2.70;99.90;;;;;;5050837;28;20049;-71
2023/02/05 06:24:57;;;;;;;17.25;8.13;;;2.70;99.90;;;;;;5050677;28;20063;-71
2023/02/05 06:27:23;;;;;;;22.45;8.43;;;2.70;99.90;;;;;;5050670;28;20463;-71
2023/02/05 06:29:48;;;;;;;15.65;6.75;;;2.70;99.90;;;;;;5049739;28;20421;-70
2023/02/05 06:32:14;;;;;;;14.77;6.93;;;2.60;99.90;;;;;;5050715;28;20036;-71
2023/02/05 06:34:39;;;;;;;23.40;8.43;;;2.70;99.90;;;;;;5050019;28;20371;-71
2023/02/05 06:37:06;;;;;;;25.05;8.48;;;2.80;99.90;;;;;;5050616;28;20047;-71
2023/02/05 06:39:31;;;;;;;16.10;6.90;;;3.00;99.90;;;;;;5044067;28;20049;-71
2023/02/05 06:41:57;;;;;;;21.73;8.00;;;3.00;99.90;;;;;;5030743;28;20037;-71
2023/02/05 06:44:23;;;;;;;17.25;6.72;;;3.00;99.90;;;;;;5028440;28;20038;-71
2023/02/05 06:46:48;;;;;;;15.60;6.95;;;2.90;99.90;;;;;;5011053;28;20041;-71
2023/02/05 06:49:14;;;;;;;17.10;6.20;;;2.90;99.90;;;;;;5025723;28;20034;-71
2023/02/05 06:51:40;;;;;;;16.10;8.13;;;2.80;99.90;;;;;;5029849;28;20105;-70
2023/02/05 06:54:05;;;;;;;19.42;7.38;;;2.80;99.90;;;;;;5020564;28;20022;-71
2023/02/05 06:56:31;;;;;;;16.25;7.03;;;2.80;99.90;;;;;;5025247;28;20430;-71
2023/02/05 06:58:57;;;;;;;20.55;8.40;;;2.80;99.90;;;;;;5032540;28;20044;-71
2023/02/05 07:01:23;;;;;;;16.52;6.95;;;2.80;99.90;;;;;;5035150;28;20108;-71
2023/02/05 07:03:53;;;;;;;17.70;6.80;;;2.80;99.90;;;;;;5033568;28;20120;-71
2023/02/05 07:06:18;;;;;;;15.05;7.20;;;2.70;99.90;;;;;;5018722;28;20026;-71
2023/02/05 07:08:46;;;;;;;18.40;7.60;;;2.70;99.90;;;;;;5021814;28;20055;-71
2023/02/05 07:11:12;;;;;;;14.98;7.22;;;2.50;99.90;;;;;;5033024;28;20025;-71
2023/02/05 07:13:37;;;;;;;15.02;6.22;;;2.40;99.90;;;;;;5029717;28;20079;-71
2023/02/05 07:16:04;;;;;;;14.50;6.30;;;2.20;99.90;;;;;;5031641;28;20055;-71
2023/02/05 07:18:30;;;;;;;18.92;6.97;;;2.10;99.90;;;;;;5032201;28;20633;-71
2023/02/05 07:20:56;;;;;;;12.57;6.25;;;2.10;99.90;;;;;;5034129;28;20072;-71
2023/02/05 07:23:22;;;;;;;15.07;6.80;;;2.00;99.90;;;;;;5033481;28;20065;-71
2023/02/05 07:25:47;;;;;;;18.67;6.55;;;2.10;99.90;;;;;;5033532;28;20034;-70
2023/02/05 07:28:13;;;;;;;13.70;6.60;;;2.30;99.90;;;;;;5030806;28;20136;-71
2023/02/05 07:30:38;;;;;;;16.83;8.75;;;2.40;99.90;;;;;;5031209;28;20079;-71
2023/02/05 07:33:04;;;;;;;15.02;5.80;;;2.30;99.90;;;;;;5032830;28;20033;-71
2023/02/05 07:35:31;;;;;;;13.45;5.97;;;2.40;99.90;;;;;;5033206;28;20167;-71
2023/02/05 07:37:56;;;;;;;13.52;6.72;;;2.50;99.90;;;;;;5033337;28;20033;-71
2023/02/05 07:40:22;;;;;;;15.10;6.35;;;2.60;99.90;;;;;;5032879;28;20538;-71
2023/02/05 07:42:48;;;;;;;12.52;6.05;;;2.50;99.90;;;;;;5033403;28;20069;-71
2023/02/05 07:45:13;;;;;;;12.05;5.32;;;2.40;99.90;;;;;;5033143;28;20459;-72
2023/02/05 07:47:39;;;;;;;14.68;6.07;;;2.40;99.90;;;;;;5033880;28;20014;-71
2023/02/05 07:50:05;;;;;;;14.57;6.57;;;2.50;99.90;;;;;;5033325;28;20037;-71
2023/02/05 07:52:32;;;;;;;18.38;7.78;;;2.60;99.90;;;;;;5034139;28;20037;-72
2023/02/05 07:54:58;;;;;;;20.77;7.88;;;2.90;99.90;;;;;;5029021;28;20125;-70
2023/02/05 07:57:25;;;;;;;15.75;7.38;;;2.90;99.90;;;;;;5031754;28;20458;-71
2023/02/05 07:59:51;;;;;;;15.95;8.18;;;2.80;99.90;;;;;;5026125;28;20068;-71
2023/02/05 08:02:16;;;;;;;16.10;6.93;;;2.70;99.90;;;;;;5033154;28;20452;-71
2023/02/05 08:04:42;;;;;;;13.77;7.45;;;2.60;99.90;;;;;;5030776;28;20033;-72
2023/02/05 08:07:11;;;;;;;19.67;9.25;;;2.70;99.90;;;;;;5030196;28;20375;-71
2023/02/05 08:09:37;;;;;;;18.52;7.50;;;2.70;99.90;;;;;;5029546;28;20134;-71
2023/02/05 08:12:03;;;;;;;17.05;7.60;;;2.80;99.90;;;;;;5030045;28;20590;-71
2023/02/05 08:14:30;;;;;;;17.20;8.30;;;2.90;99.90;;;;;;5030180;28;20034;-71
2023/02/05 08:16:57;;;;;;;14.60;6.70;;;2.90;99.90;;;;;;5030472;28;20037;-70
2023/02/05 08:19:23;;;;;;;19.63;6.95;;;2.90;99.90;;;;;;5033376;28;20096;-71
2023/02/05 08:21:48;;;;;;;16.92;6.75;;;2.90;99.90;;;;;;5032191;28;20113;-71
2023/02/05 08:24:14;;;;;;;15.80;6.57;;;3.10;99.90;;;;;;5033242;28;20621;-71
2023/02/05 08:26:40;;;;;;;18.95;9.27;;;3.20;99.90;;;;;;5032832;28;20080;-71
2023/02/05 08:29:07;;;;;;;17.23;7.53;;;3.10;99.90;;;;;;5032892;28;20025;-71
2023/02/05 08:31:34;;;;;;;13.77;6.82;;;3.10;99.90;;;;;;5031823;28;20099;-72
2023/02/05 08:34:00;;;;;;;15.25;7.03;;;3.00;99.90;;;;;;5029655;28;20087;-71
2023/02/05 08:36:26;;;;;;;17.33;7.90;;;3.20;99.90;;;;;;5030277;28;20029;-71
2023/02/05 08:38:52;;;;;;;16.05;7.60;;;3.20;99.90;;;;;;5028797;28;20044;-71
2023/02/05 08:41:18;;;;;;;17.95;7.72;;;3.20;99.90;;;;;;5029415;28;20050;-71
2023/02/05 08:43:47;;;;;;;19.88;8.13;;;3.20;99.90;;;;;;5031035;28;20080;-71
2023/02/05 08:46:15;;;;;;;16.40;7.88;;;3.20;99.90;;;;;;5031665;28;20086;-71
2023/02/05 08:48:41;;;;;;;16.70;8.05;;;3.20;99.90;;;;;;5032252;28;20025;-70
2023/02/05 08:51:12;;;;;;;18.73;8.93;;;3.20;99.90;;;;;;5030924;28;20029;-71
2023/02/05 08:53:39;;;;;;;16.85;7.63;;;3.00;99.90;;;;;;5011993;28;20034;-71
2023/02/05 08:56:05;;;;;;;25.15;10.80;;;3.10;99.90;;;;;;5023804;28;20029;-71
2023/02/05 08:58:31;;;;;;;18.98;7.43;;;3.10;99.90;;;;;;5032269;28;20400;-71
2023/02/05 09:01:06;;;;;;;19.77;9.40;;;3.20;99.90;;;;;;5029131;28;20079;-71
2023/02/05 09:03:32;;;;;;;;;;;3.20;99.90;;;;;;5024128;28;20028;-71
2023/02/05 09:05:58;;;;;;;17.90;7.25;;;3.30;99.90;;;;;;5031421;28;19909;-71
2023/02/05 09:08:25;;;;;;;16.60;7.53;;;3.30;99.90;;;;;;5030924;28;20171;-71
2023/02/05 09:10:51;;;;;;;14.63;7.80;;;3.20;99.90;;;;;;5031578;28;20498;-71
2023/02/05 09:13:16;;;;;;;17.50;7.40;;;3.30;99.90;;;;;;5031545;28;20025;-71
2023/02/05 09:15:44;;;;;;;13.77;6.43;;;3.40;99.90;;;;;;5032121;28;20059;-71
2023/02/05 09:18:09;;;;;;;16.77;6.25;;;3.40;99.90;;;;;;5031281;28;20042;-71
2023/02/05 09:20:40;;;;;;;13.02;7.03;;;3.50;99.90;;;;;;5032237;28;20029;-71
2023/02/05 09:23:08;;;;;;;13.75;6.93;;;3.50;99.90;;;;;;5030951;28;20030;-71
2023/02/05 09:25:35;;;;;;;15.75;6.40;;;3.50;99.90;;;;;;5030592;28;20052;-71
2023/02/05 09:28:01;;;;;;;18.17;6.95;;;3.60;99.90;;;;;;5031593;28;20056;-71
2023/02/05 09:30:26;;;;;;;13.95;6.57;;;3.60;99.90;;;;;;5031269;28;20049;-71
2023/02/05 09:32:52;;;;;;;16.92;6.45;;;3.70;99.90;;;;;;5028911;28;20087;-71
2023/02/05 09:35:17;;;;;;;21.55;7.45;;;3.70;99.90;;;;;;5030733;28;20033;-71
2023/02/05 09:37:43;;;;;;;18.23;6.97;;;3.80;99.90;;;;;;5031034;28;20041;-71
2023/02/05 09:40:33;;;;;;;17.10;7.45;;;3.80;99.90;;;;;;5030774;28;20379;-71
2023/02/05 09:43:20;;;;;;;17.50;7.60;;;3.90;99.90;;;;;;5031572;28;20087;-70
2023/02/05 09:45:48;;;;;;;22.45;6.32;;;4.00;99.90;;;;;;5017573;28;20032;-71
2023/02/05 09:48:39;;;;;;;21.55;12.02;;;4.10;99.90;;;;;;5030503;28;20033;-71
2023/02/05 09:51:07;;;;;;;22.67;10.95;;;4.20;99.90;;;;;;5031409;28;20060;-71
2023/02/05 09:53:38;;;;;;;23.55;10.15;;;4.30;99.90;;;;;;5030877;28;20629;-71
2023/02/05 09:56:06;;;;;;;19.92;8.70;;;4.30;99.90;;;;;;5029281;28;20056;-71
2023/02/05 09:58:36;;;;;;;14.18;8.25;;;4.40;99.40;;;;;;5030235;28;20124;-71
2023/02/05 10:01:35;;;;;;;17.58;8.82;;;4.40;99.40;;;;;;5031548;28;20568;-71
2023/02/05 10:04:04;;;;;;;17.23;7.07;;;4.60;99.30;;;;;;5031160;28;20037;-71
2023/02/05 10:07:03;;;;;;;18.00;9.48;;;4.60;99.10;;;;;;5030519;28;20025;-70
2023/02/05 10:09:47;;;;;;;14.52;9.02;;;4.70;99.30;;;;;;5030787;28;20071;-71
2023/02/05 10:12:32;;;;;;;16.30;7.35;;;4.70;99.30;;;;;;5031019;28;20471;-71
2023/02/05 10:15:06;;;;;;;18.75;8.45;;;5.00;99.10;;;;;;5029523;28;20041;-71
2023/02/05 10:17:53;;;;;;;18.17;9.30;;;5.00;98.70;;;;;;5031061;28;20061;-71
2023/02/05 10:20:57;;;;;;;14.35;7.38;;;5.10;98.70;;;;;;5031191;28;20040;-71
2023/02/05 10:24:02;;;;;;;14.95;6.25;;;5.10;98.50;;;;;;5030808;28;20037;-71
2023/02/05 10:26:42;;;;;;;14.52;6.47;;;5.00;98.20;;;;;;5030977;28;20091;-71
2023/02/05 10:29:31;;;;;;;18.00;7.65;;;5.10;98.00;;;;;;5029341;28;20433;-71
2023/02/05 10:32:00;;;;;;;13.38;7.55;;;5.10;98.30;;;;;;5025973;28;20371;-71
2023/02/05 10:34:41;;;;;;;12.18;6.22;;;5.30;98.30;;;;;;5028289;28;20120;-71
2023/02/05 10:37:15;;;;;;;15.45;6.65;;;5.50;98.20;;;;;;5029359;28;20044;-71
2023/02/05 10:39:41;;;;;;;13.93;4.88;;;5.60;97.60;;;;;;5030134;28;20065;-71
2023/02/05 10:42:16;;;;;;;12.90;5.07;;;5.50;97.30;;;;;;5030860;28;20034;-71
2023/02/05 10:44:43;;;;;;;;;;;5.60;97.00;;;;;;5030469;28;20116;-71
2023/02/05 10:47:18;;;;;;;9.20;4.50;;;5.60;96.80;;;;;;5030617;28;19979;-71
2023/02/05 10:49:55;;;;;;;13.23;5.78;;;5.80;96.90;;;;;;5030435;28;20029;-71
2023/02/05 11:05:50;;;;;;;12.13;5.45;;;6.10;95.50;;;;;;5026383;28;20053;-71
2023/02/05 11:08:31;;;;;;;14.38;4.97;;;6.20;95.50;;;;;;5027817;28;20025;-71
2023/02/05 11:10:57;;;;;;;14.45;4.72;;;6.30;95.60;;;;;;5030717;28;20036;-71
2023/02/05 11:13:23;;;;;;;6.90;3.85;;;6.40;95.30;;;;;;5029420;28;20022;-71
2023/02/05 11:16:08;;;;;;;9.45;4.55;;;6.50;95.40;;;;;;5027945;28;20037;-71
2023/02/05 11:18:46;;;;;;;11.88;4.32;;;6.50;95.00;;;;;;5026197;28;20060;-70
2023/02/05 11:21:12;;;;;;;9.07;3.40;;;6.50;94.80;;;;;;5027731;28;20032;-72
2023/02/05 11:23:39;;;;;;;10.48;5.30;;;6.60;94.80;;;;;;5030979;28;20353;-71
2023/02/05 11:26:19;;;;;;;12.52;4.72;;;6.80;94.70;;;;;;5030955;28;20471;-71
2023/02/05 11:38:56;;;;;;;18.17;4.57;;;6.90;94.10;;;;;;5019233;28;20134;-71
2023/02/05 11:41:55;;;;;;;12.48;4.65;;;6.90;93.90;;;;;;5027563;28;20057;-71
2023/02/05 11:44:26;;;;;;;9.23;4.68;;;7.10;94.00;;;;;;5020428;28;20461;-71
2023/02/05 11:46:55;;;;;;;8.75;4.38;;;7.20;94.00;;;;;;5030207;28;20487;-71
2023/02/05 11:49:34;;;;;;;11.48;4.57;;;7.40;94.00;;;;;;5029977;28;20060;-71
2023/02/05 11:58:58;;;;;;;12.57;4.88;;;7.30;93.40;;;;;;5031010;28;20132;-71
2023/02/05 12:01:24;;;;;;;11.05;4.55;;;7.20;93.50;;;;;;5043994;28;20037;-71
2023/02/05 12:03:58;;;;;;;13.88;4.65;;;7.20;93.50;;;;;;5030262;28;20030;-72
2023/02/05 12:06:46;;;;;;;15.45;5.22;;;7.30;93.50;;;;;;5030306;28;20391;-71
2023/02/05 12:16:19;;;;;;;9.82;4.25;;;7.30;93.70;;;;;;5032507;28;20033;-70
2023/02/05 12:19:20;;;;;;;11.88;4.63;;;7.40;93.90;;;;;;5033429;28;20076;-70
2023/02/05 12:21:54;;;;;;;22.85;5.60;;;7.60;93.70;;;;;;4999786;28;20522;-70
2023/02/05 12:24:36;;;;;;;14.13;5.35;;;7.60;93.30;;;;;;5033451;28;20041;-70
2023/02/05 12:27:31;;;;;;;20.90;4.43;;;7.50;93.30;;;;;;5031651;28;20104;-70
2023/02/05 12:33:46;;;;;;;12.32;5.50;;;7.70;93.30;;;;;;5013524;28;20044;-70
2023/02/05 12:37:02;;;;;;;11.75;4.20;;;7.70;92.80;;;;;;5013299;28;20037;-70
2023/02/05 12:39:27;;;;;;;11.07;5.93;;;7.80;93.10;;;;;;5029295;28;20038;-70
2023/02/05 12:42:00;;;;;;;12.38;4.95;;;7.90;92.90;;;;;;5032340;28;20048;-71
2023/02/05 12:44:54;;;;;;;15.27;6.93;;;8.10;93.00;;;;;;5031505;28;20107;-70
2023/02/05 12:47:48;;;;;;;12.80;4.38;;;8.30;92.50;;;;;;5031779;28;20459;-70
2023/02/05 12:50:52;;;;;;;14.10;4.82;;;8.40;92.40;;;;;;5031741;28;20033;-70
2023/02/05 12:53:21;;;;;;;21.30;10.48;;;8.50;92.70;;;;;;5029010;28;20056;-70
2023/02/05 12:55:47;;;;;;;16.88;7.53;;;8.50;91.90;;;;;;5031092;28;20571;-70
2023/02/05 12:58:15;;;;;;;13.57;5.80;;;8.70;92.00;;;;;;5031572;28;20052;-70
2023/02/05 13:04:41;;;;;;;13.65;6.28;;;8.80;91.60;;;;;;5023211;28;20088;-70
2023/02/05 13:07:34;;;;;;;15.35;5.65;;;8.80;91.50;;;;;;5028974;28;20025;-70
2023/02/05 13:13:43;;;;;;;9.35;3.55;;;8.70;91.30;;;;;;5017787;28;20036;-70
2023/02/05 13:16:15;;;;;;;7.90;4.65;;;8.80;91.30;;;;;;5029253;28;20384;-70
2023/02/05 13:18:46;;;;;;;10.13;4.13;;;8.70;91.00;;;;;;5031551;28;20037;-70
2023/02/05 13:33:35;;;;;;;8.55;3.55;;;9.00;91.20;;;;;;5031297;28;20064;-70
2023/02/05 13:36:15;;;;;;;13.25;5.88;;;9.10;91.20;;;;;;5029640;28;20033;-71
2023/02/05 13:39:18;;;;;;;13.02;4.40;;;9.10;91.10;;;;;;5025968;28;20045;-70
2023/02/05 13:45:43;;;;;;;11.27;5.05;;;9.00;90.90;;;;;;5014269;28;20037;-70
2023/02/05 13:55:02;;;;;;;8.88;3.17;;;8.70;91.00;;;;;;5030409;28;20040;-70
2023/02/05 13:58:05;;;;;;;9.73;2.95;;;8.90;91.20;;;;;;5030301;28;20034;-70
2023/02/05 14:17:26;;;;;;;10.82;3.92;;;8.70;91.20;;;;;;5030609;28;20045;-70
2023/02/05 14:22:41;;;;;;;8.48;2.72;;;8.70;91.30;;;;;;5031257;28;20040;-70
2023/02/05 14:31:51;;;;;;;6.32;2.72;;;8.70;91.30;;;;;;5027836;28;20044;-69
2023/02/05 14:34:54;;;;;;;6.03;2.75;;;8.70;91.20;;;;;;5029940;28;20455;-71
2023/02/05 14:40:41;;;;;;;9.88;2.15;;;8.70;91.30;;;;;;5030079;28;20725;-70
2023/02/05 14:43:51;;;;;;;5.85;3.30;;;8.70;91.50;;;;;;5030048;28;20099;-70
2023/02/05 14:55:38;;;;;;;6.00;2.95;;;8.40;91.70;;;;;;5030065;28;20506;-70
2023/02/05 14:58:29;;;;;;;8.98;3.60;;;8.40;91.90;;;;;;5029741;28;20112;-70
2023/02/05 15:04:28;;;;;;;8.50;2.13;;;8.40;91.80;;;;;;5029851;28;20382;-70
2023/02/05 15:13:08;;;;;;;10.13;3.70;;;8.10;91.90;;;;;;5026821;28;20505;-70